createdAt,value
2019-03-24T10:35:58.717Z,74.30
2019-03-24T10:38:28.666Z,71.20
2019-03-24T10:49:40.303Z,70.50
2019-03-24T10:52:10.235Z,69.70
2019-03-24T10:56:51.632Z,70.80
2019-03-24T10:59:21.579Z,67.20
2019-03-24T11:05:06.046Z,69.80
2019-03-24T11:17:33.034Z,87.00
2019-03-24T11:20:03.033Z,80.00
2019-03-24T11:22:32.936Z,84.20
2019-03-24T11:25:02.850Z,85.50
2019-03-24T11:27:32.787Z,84.90
2019-03-24T11:30:02.768Z,84.60
2019-03-24T11:32:32.726Z,83.90
2019-03-24T11:35:02.698Z,84.60
2019-03-24T11:37:32.648Z,83.50
2019-03-24T11:40:02.608Z,83.90
2019-03-24T11:42:32.557Z,82.50
2019-03-24T11:45:02.465Z,84.20
2019-03-24T11:47:32.401Z,82.90
2019-03-24T11:50:02.381Z,83.40
2019-03-24T11:52:32.357Z,83.90
2019-03-24T11:55:02.255Z,84.90
2019-03-24T11:57:32.151Z,83.40
2019-03-24T12:00:02.033Z,84.00
2019-03-24T12:02:32.016Z,83.50
2019-03-24T12:05:01.897Z,82.20
2019-03-24T12:07:31.885Z,82.80
2019-03-24T12:10:01.860Z,83.10
2019-03-24T12:12:31.847Z,82.90
2019-03-24T12:15:01.804Z,82.40
2019-03-24T12:17:31.818Z,82.70
2019-03-24T12:20:01.746Z,82.10
2019-03-24T12:22:31.746Z,78.50
2019-03-24T12:25:01.728Z,80.30
2019-03-24T12:27:31.695Z,81.80
2019-03-24T12:30:01.707Z,83.40
2019-03-24T12:32:31.598Z,83.20
2019-03-24T12:35:03.295Z,81.60
2019-03-24T12:37:33.319Z,82.40
2019-03-24T12:40:03.365Z,79.50
2019-03-24T12:42:33.326Z,79.60
2019-03-24T12:45:03.285Z,80.50
2019-03-24T12:47:33.232Z,80.70
2019-03-24T12:50:08.654Z,81.20
2019-03-24T12:52:34.867Z,81.40
2019-03-24T12:55:04.873Z,82.00
2019-03-24T12:57:34.785Z,80.30
2019-03-24T13:00:05.852Z,79.00
2019-03-24T13:02:35.786Z,80.50
2019-03-24T13:05:06.610Z,79.80
2019-03-24T13:07:36.545Z,79.70
2019-03-24T13:10:07.086Z,80.10
2019-03-24T13:12:37.024Z,80.30
2019-03-24T13:15:07.903Z,80.40
2019-03-24T13:17:37.849Z,80.20
2019-03-24T13:20:19.569Z,81.40
2019-03-24T13:22:40.080Z,82.40
2019-03-24T13:25:10.125Z,82.30
2019-03-24T13:27:40.095Z,83.80
2019-03-24T13:30:10.492Z,81.60
2019-03-24T13:32:40.514Z,81.90
2019-03-24T13:35:10.525Z,81.10
2019-03-24T13:37:40.550Z,81.50
2019-03-24T13:40:10.476Z,80.60
2019-03-24T13:42:40.546Z,80.40
2019-03-24T13:45:10.596Z,80.10
2019-03-24T13:47:40.584Z,81.00
2019-03-24T13:50:10.534Z,81.40
2019-03-24T13:52:40.521Z,82.30
2019-03-24T13:55:10.514Z,82.50
2019-03-24T13:57:40.549Z,80.90
2019-03-24T14:00:11.613Z,81.10
2019-03-24T14:02:41.533Z,81.90
2019-03-24T14:05:11.519Z,81.60
2019-03-24T14:07:41.378Z,83.50
2019-03-24T14:10:11.411Z,82.10
2019-03-24T14:12:41.436Z,82.70
2019-03-24T14:15:11.461Z,81.50
2019-03-24T14:17:41.378Z,81.20
2019-03-24T14:20:11.546Z,80.70
2019-03-24T14:22:41.538Z,80.90
2019-03-24T14:25:11.481Z,81.50
2019-03-24T14:27:41.495Z,81.20
2019-03-24T14:30:11.846Z,81.70
2019-03-24T14:32:41.771Z,82.50
2019-03-24T14:35:11.940Z,81.00
2019-03-24T14:37:41.936Z,78.20
2019-03-24T14:40:11.958Z,78.30
2019-03-24T14:42:41.968Z,77.10
2019-03-24T14:45:12.048Z,77.30
2019-03-24T14:47:42.091Z,77.60
2019-03-24T14:50:12.207Z,76.90
2019-03-24T14:52:42.248Z,77.60
2019-03-24T14:55:12.248Z,78.20
2019-03-24T14:57:42.178Z,78.50
2019-03-24T15:00:12.482Z,79.00
2019-03-24T15:02:42.427Z,78.80
2019-03-24T15:05:12.863Z,79.80
2019-03-24T15:07:42.838Z,79.00
2019-03-24T15:10:12.850Z,79.00
2019-03-24T15:12:42.866Z,78.60
2019-03-24T15:15:12.782Z,80.00
2019-03-24T15:17:42.766Z,79.70
2019-03-24T15:20:12.706Z,78.70
2019-03-24T15:22:42.563Z,78.10
2019-03-24T15:25:12.654Z,79.00
2019-03-24T15:27:42.569Z,78.60
2019-03-24T15:30:12.831Z,79.70
2019-03-24T15:32:42.783Z,79.20
2019-03-24T15:35:12.782Z,78.60
2019-03-24T15:37:42.829Z,77.20
2019-03-24T15:40:12.983Z,77.00
2019-03-24T15:42:42.893Z,78.90
2019-03-24T15:45:13.160Z,78.30
2019-03-24T15:47:43.449Z,78.50
2019-03-24T15:50:13.682Z,78.30
2019-03-24T15:52:43.669Z,79.10
2019-03-24T15:55:13.689Z,78.80
2019-03-24T15:57:43.700Z,78.70
2019-03-24T16:00:14.618Z,79.00
2019-03-24T16:02:44.562Z,78.90
2019-03-24T16:05:14.528Z,78.20
2019-03-24T16:07:44.523Z,78.60
2019-03-24T16:10:14.608Z,78.80
2019-03-24T16:12:44.531Z,78.50
2019-03-24T16:15:14.527Z,78.40
2019-03-24T16:17:44.553Z,78.40
2019-03-24T16:20:14.556Z,78.40
2019-03-24T16:22:44.529Z,78.30
2019-03-24T16:25:14.420Z,78.90
2019-03-24T16:27:44.345Z,78.20
2019-03-24T16:30:14.632Z,78.10
2019-03-24T16:32:44.595Z,78.60
2019-03-24T16:35:14.568Z,78.10
2019-03-24T16:37:44.574Z,79.00
2019-03-24T16:40:14.592Z,78.80
2019-03-24T16:42:44.542Z,78.40
2019-03-24T16:45:14.628Z,78.40
2019-03-24T16:47:44.541Z,77.90
2019-03-24T16:50:14.545Z,77.70
2019-03-24T16:52:44.545Z,78.20
2019-03-24T16:55:14.534Z,78.40
2019-03-24T16:57:44.493Z,78.50
2019-03-24T17:00:14.487Z,78.50
2019-03-24T17:02:44.460Z,79.40
2019-03-24T17:05:14.586Z,79.10
2019-03-24T17:07:44.565Z,79.40
2019-03-24T17:10:14.754Z,78.90
2019-03-24T17:12:44.710Z,78.70
2019-03-24T17:15:14.787Z,79.10
2019-03-24T17:17:44.728Z,78.80
2019-03-24T17:20:14.840Z,79.40
2019-03-24T17:39:33.866Z,83.20
2019-03-24T17:42:03.927Z,79.30
2019-03-24T17:44:33.964Z,79.80
2019-03-24T17:47:04.145Z,80.20
2019-03-24T17:49:35.403Z,80.20
2019-03-24T17:52:05.688Z,80.10
2019-03-24T17:54:36.627Z,81.90
2019-03-24T17:57:07.047Z,81.60
2019-03-24T17:59:37.182Z,80.40
2019-03-24T18:02:14.221Z,80.30
2019-03-24T18:04:39.543Z,81.00
2019-03-24T18:07:09.745Z,81.30
2019-03-24T18:09:40.117Z,82.50
2019-03-24T18:12:10.790Z,82.00
2019-03-24T18:14:40.882Z,81.40
2019-03-24T18:17:11.004Z,81.70
2019-03-24T18:19:41.294Z,81.10
2019-03-24T18:22:12.064Z,80.80
2019-03-24T18:24:42.432Z,81.30
2019-03-24T18:30:03.163Z,80.90
2019-03-24T18:32:34.598Z,80.70
2019-03-24T18:35:05.722Z,81.20
2019-03-24T18:37:35.813Z,82.00
2019-03-24T18:40:07.318Z,82.10
2019-03-24T18:42:37.743Z,82.40
2019-03-24T18:45:09.852Z,82.10
2019-03-24T18:47:41.144Z,82.90
2019-03-24T18:50:12.413Z,83.30
2019-03-24T18:52:45.354Z,83.30
2019-03-24T18:55:16.284Z,83.00
2019-03-24T18:57:47.218Z,83.00
2019-03-24T19:00:19.636Z,82.90
2019-03-24T19:02:50.497Z,83.30
2019-03-24T19:05:20.989Z,83.60
2019-03-24T19:07:51.385Z,84.60
2019-03-24T19:10:22.444Z,85.00
2019-03-24T19:12:53.087Z,86.60
2019-03-24T19:15:24.401Z,86.80
2019-03-24T19:17:55.134Z,87.40
2019-03-24T19:20:25.906Z,87.90
2019-03-24T19:22:56.704Z,88.00
2019-03-24T19:25:27.145Z,88.00
2019-03-24T19:27:58.010Z,87.80
2019-03-24T19:30:37.009Z,87.90
2019-03-24T19:33:08.145Z,88.70
2019-03-24T19:35:38.829Z,88.70
2019-03-24T19:38:09.706Z,89.30
2019-03-24T19:40:40.373Z,89.50
2019-03-24T19:43:11.920Z,90.00
2019-03-24T19:45:42.935Z,90.20
2019-03-24T19:48:13.633Z,90.20
2019-03-24T19:50:44.655Z,90.30
2019-03-24T19:53:15.387Z,90.40
2019-03-24T19:55:46.036Z,90.60
2019-03-24T19:58:19.088Z,90.70
2019-03-24T20:00:50.020Z,90.70
2019-03-24T20:03:20.761Z,90.70
2019-03-24T20:05:51.162Z,90.80
2019-03-24T20:08:21.664Z,90.80
2019-03-24T20:10:52.129Z,91.20
2019-03-24T20:13:22.746Z,91.00
2019-03-24T20:15:53.451Z,90.90
2019-03-24T20:18:27.182Z,90.80
2019-03-24T20:20:57.730Z,90.80
2019-03-24T20:23:28.716Z,90.80
2019-03-24T20:25:59.254Z,90.70
2019-03-24T20:28:30.182Z,90.60
2019-03-24T20:31:02.481Z,90.50
2019-03-24T20:33:33.265Z,90.10
2019-03-24T20:36:04.143Z,89.90
2019-03-24T20:38:35.178Z,90.00
2019-03-24T20:41:05.495Z,89.70
2019-03-24T20:43:36.341Z,89.80
2019-03-24T20:46:06.913Z,89.10
2019-03-24T20:48:40.235Z,88.30
2019-03-24T20:51:10.905Z,88.20
2019-03-24T20:53:41.199Z,87.90
2019-03-24T20:56:11.564Z,87.80
2019-03-24T20:58:44.730Z,87.60
2019-03-24T21:01:15.453Z,86.00
2019-03-24T21:03:48.027Z,85.20
2019-03-24T21:06:19.210Z,84.10
2019-03-24T21:08:49.670Z,83.40
2019-03-24T21:11:19.658Z,82.60
2019-03-24T21:13:49.657Z,82.50
2019-03-24T21:16:19.690Z,81.90
2019-03-24T21:18:51.070Z,80.70
2019-03-24T21:21:21.304Z,80.20
2019-03-24T21:23:51.268Z,80.10
2019-03-24T21:26:21.319Z,79.40
2019-03-24T21:28:51.280Z,78.90
2019-03-24T21:31:21.267Z,78.80
2019-03-24T21:33:51.261Z,79.50
2019-03-24T21:36:21.246Z,77.60
2019-03-24T21:38:51.192Z,78.00
2019-03-24T21:41:24.264Z,78.10
2019-03-24T21:43:57.061Z,77.70
2019-03-24T21:46:27.034Z,78.60
2019-03-24T21:48:57.805Z,77.40
2019-03-24T21:51:27.843Z,77.60
2019-03-24T21:53:57.705Z,77.00
2019-03-24T21:56:27.611Z,77.20
2019-03-24T21:58:57.518Z,78.00
2019-03-24T22:01:27.490Z,77.40
2019-03-24T22:03:57.619Z,76.50
2019-03-24T22:06:27.560Z,76.40
2019-03-24T22:08:57.622Z,76.60
2019-03-24T22:11:27.579Z,76.40
2019-03-24T22:13:57.560Z,76.70
2019-03-24T22:16:27.441Z,76.20
2019-03-24T22:18:57.398Z,76.30
2019-03-24T22:21:27.319Z,76.40
2019-03-24T22:23:57.315Z,76.40
2019-03-24T22:26:27.190Z,76.20
2019-03-24T22:28:57.283Z,75.90
2019-03-24T22:31:27.269Z,75.90
2019-03-24T22:33:57.255Z,76.20
2019-03-24T22:36:27.283Z,76.40
2019-03-24T22:38:57.274Z,76.00
2019-03-24T22:41:27.273Z,76.10
2019-03-24T22:43:57.215Z,76.20
2019-03-24T22:46:27.153Z,76.40
2019-03-24T22:48:57.120Z,76.20
2019-03-24T22:51:27.119Z,76.30
2019-03-24T22:54:03.302Z,76.30
2019-03-24T22:56:30.295Z,76.40
2019-03-24T22:59:00.141Z,76.90
2019-03-24T23:01:30.044Z,76.00
2019-03-24T23:03:59.951Z,76.40
2019-03-24T23:06:29.898Z,76.10
2019-03-24T23:08:59.803Z,76.10
2019-03-24T23:11:29.727Z,76.00
2019-03-24T23:13:59.689Z,78.90
2019-03-24T23:16:32.543Z,75.00
2019-03-24T23:19:02.580Z,75.60
2019-03-24T23:21:32.628Z,75.30
2019-03-24T23:24:02.641Z,75.90
2019-03-24T23:26:32.632Z,75.60
2019-03-24T23:29:02.591Z,75.50
2019-03-24T23:31:34.088Z,77.30
2019-03-24T23:34:04.325Z,77.00
2019-03-24T23:36:34.334Z,77.40
2019-03-24T23:39:05.542Z,79.00
2019-03-24T23:41:35.490Z,80.00
2019-03-24T23:44:05.434Z,79.40
2019-03-24T23:46:35.327Z,80.10
2019-03-24T23:49:05.334Z,80.90
2019-03-24T23:51:35.235Z,79.80
2019-03-24T23:54:05.241Z,79.80
2019-03-24T23:56:35.287Z,81.30
2019-03-24T23:59:05.273Z,80.80
